sensor_id;sensor_type;location;lat;lon;timestamp;P1;durP1;ratioP1;P2;durP2;ratioP2
5904;SDS011;2978;42.012;24.880;2023-04-15T00:01:54;3.13;;;2.20;;
5904;SDS011;2978;42.012;24.880;2023-04-15T00:04:19;6.73;;;2.43;;
5904;SDS011;2978;42.012;24.880;2023-04-15T00:06:49;3.60;;;2.07;;
5904;SDS011;2978;42.012;24.880;2023-04-15T00:09:17;4.87;;;2.53;;
5904;SDS011;2978;42.012;24.880;2023-04-15T00:11:43;6.10;;;3.03;;
5904;SDS011;2978;42.012;24.880;2023-04-15T00:14:09;6.10;;;3.20;;
5904;SDS011;2978;42.012;24.880;2023-04-15T00:16:35;7.57;;;3.97;;
5904;SDS011;2978;42.012;24.880;2023-04-15T00:19:01;6.30;;;3.27;;
5904;SDS011;2978;42.012;24.880;2023-04-15T00:21:26;7.13;;;3.50;;
5904;SDS011;2978;42.012;24.880;2023-04-15T00:23:53;4.80;;;3.30;;
5904;SDS011;2978;42.012;24.880;2023-04-15T00:26:18;7.13;;;3.73;;
5904;SDS011;2978;42.012;24.880;2023-04-15T00:28:44;7.30;;;4.27;;
5904;SDS011;2978;42.012;24.880;2023-04-15T00:31:10;4.90;;;3.70;;
5904;SDS011;2978;42.012;24.880;2023-04-15T00:33:36;6.00;;;3.97;;
5904;SDS011;2978;42.012;24.880;2023-04-15T00:36:01;6.10;;;4.30;;
5904;SDS011;2978;42.012;24.880;2023-04-15T00:38:27;4.90;;;3.90;;
5904;SDS011;2978;42.012;24.880;2023-04-15T00:40:53;6.10;;;4.30;;
5904;SDS011;2978;42.012;24.880;2023-04-15T00:43:20;12.70;;;4.63;;
5904;SDS011;2978;42.012;24.880;2023-04-15T00:45:46;9.37;;;5.60;;
5904;SDS011;2978;42.012;24.880;2023-04-15T00:48:12;6.97;;;4.43;;
5904;SDS011;2978;42.012;24.880;2023-04-15T00:50:38;9.60;;;4.50;;
5904;SDS011;2978;42.012;24.880;2023-04-15T00:53:03;4.80;;;3.83;;
5904;SDS011;2978;42.012;24.880;2023-04-15T00:55:29;7.90;;;4.53;;
5904;SDS011;2978;42.012;24.880;2023-04-15T00:57:55;5.23;;;3.20;;
5904;SDS011;2978;42.012;24.880;2023-04-15T01:00:21;9.03;;;4.40;;
5904;SDS011;2978;42.012;24.880;2023-04-15T01:02:47;5.00;;;3.83;;
5904;SDS011;2978;42.012;24.880;2023-04-15T01:05:13;5.43;;;3.50;;
5904;SDS011;2978;42.012;24.880;2023-04-15T01:07:41;6.23;;;3.90;;
5904;SDS011;2978;42.012;24.880;2023-04-15T01:10:07;7.23;;;4.87;;
5904;SDS011;2978;42.012;24.880;2023-04-15T01:12:33;6.60;;;4.40;;
5904;SDS011;2978;42.012;24.880;2023-04-15T01:14:59;11.30;;;5.63;;
5904;SDS011;2978;42.012;24.880;2023-04-15T01:17:25;10.63;;;5.60;;
5904;SDS011;2978;42.012;24.880;2023-04-15T01:19:51;8.87;;;4.70;;
5904;SDS011;2978;42.012;24.880;2023-04-15T01:22:17;12.60;;;5.50;;
5904;SDS011;2978;42.012;24.880;2023-04-15T01:24:47;12.10;;;3.83;;
5904;SDS011;2978;42.012;24.880;2023-04-15T01:27:19;5.17;;;2.77;;
5904;SDS011;2978;42.012;24.880;2023-04-15T01:29:45;4.23;;;2.00;;
5904;SDS011;2978;42.012;24.880;2023-04-15T01:32:11;4.10;;;2.60;;
5904;SDS011;2978;42.012;24.880;2023-04-15T01:34:36;7.63;;;2.50;;
5904;SDS011;2978;42.012;24.880;2023-04-15T01:37:02;8.47;;;2.53;;
5904;SDS011;2978;42.012;24.880;2023-04-15T01:39:27;3.30;;;1.93;;
5904;SDS011;2978;42.012;24.880;2023-04-15T01:41:53;5.97;;;2.10;;
5904;SDS011;2978;42.012;24.880;2023-04-15T01:44:18;4.10;;;2.00;;
5904;SDS011;2978;42.012;24.880;2023-04-15T01:46:43;8.73;;;2.23;;
5904;SDS011;2978;42.012;24.880;2023-04-15T01:49:09;5.10;;;2.60;;
5904;SDS011;2978;42.012;24.880;2023-04-15T01:51:34;9.80;;;3.70;;
5904;SDS011;2978;42.012;24.880;2023-04-15T01:54:00;6.07;;;3.10;;
5904;SDS011;2978;42.012;24.880;2023-04-15T01:56:25;7.27;;;3.00;;
5904;SDS011;2978;42.012;24.880;2023-04-15T01:58:51;5.67;;;3.40;;
5904;SDS011;2978;42.012;24.880;2023-04-15T02:01:17;9.47;;;5.43;;
5904;SDS011;2978;42.012;24.880;2023-04-15T02:03:43;8.50;;;5.77;;
5904;SDS011;2978;42.012;24.880;2023-04-15T02:06:09;8.83;;;4.50;;
5904;SDS011;2978;42.012;24.880;2023-04-15T02:08:35;6.87;;;4.67;;
5904;SDS011;2978;42.012;24.880;2023-04-15T02:11:00;7.00;;;4.40;;
5904;SDS011;2978;42.012;24.880;2023-04-15T02:13:26;6.13;;;4.07;;
5904;SDS011;2978;42.012;24.880;2023-04-15T02:15:53;5.83;;;3.97;;
5904;SDS011;2978;42.012;24.880;2023-04-15T02:18:19;5.23;;;4.30;;
5904;SDS011;2978;42.012;24.880;2023-04-15T02:20:45;6.93;;;4.93;;
5904;SDS011;2978;42.012;24.880;2023-04-15T02:23:11;7.73;;;5.30;;
5904;SDS011;2978;42.012;24.880;2023-04-15T02:25:37;7.27;;;4.93;;
5904;SDS011;2978;42.012;24.880;2023-04-15T02:28:05;6.27;;;5.10;;
5904;SDS011;2978;42.012;24.880;2023-04-15T02:30:31;8.67;;;4.20;;
5904;SDS011;2978;42.012;24.880;2023-04-15T02:32:57;7.23;;;4.40;;
5904;SDS011;2978;42.012;24.880;2023-04-15T02:35:24;6.20;;;4.87;;
5904;SDS011;2978;42.012;24.880;2023-04-15T02:37:50;6.03;;;4.40;;
5904;SDS011;2978;42.012;24.880;2023-04-15T02:40:15;6.40;;;3.63;;
5904;SDS011;2978;42.012;24.880;2023-04-15T02:42:41;7.70;;;3.93;;
5904;SDS011;2978;42.012;24.880;2023-04-15T02:45:08;7.77;;;4.73;;
5904;SDS011;2978;42.012;24.880;2023-04-15T02:47:34;5.37;;;4.13;;
5904;SDS011;2978;42.012;24.880;2023-04-15T02:50:02;6.90;;;4.03;;
5904;SDS011;2978;42.012;24.880;2023-04-15T02:52:28;4.43;;;3.87;;
5904;SDS011;2978;42.012;24.880;2023-04-15T02:54:53;7.53;;;4.97;;
5904;SDS011;2978;42.012;24.880;2023-04-15T02:57:27;8.43;;;4.57;;
5904;SDS011;2978;42.012;24.880;2023-04-15T02:59:56;6.50;;;4.73;;
5904;SDS011;2978;42.012;24.880;2023-04-15T03:02:21;8.80;;;5.00;;
5904;SDS011;2978;42.012;24.880;2023-04-15T03:04:47;14.57;;;4.90;;
5904;SDS011;2978;42.012;24.880;2023-04-15T03:07:13;8.27;;;5.80;;
5904;SDS011;2978;42.012;24.880;2023-04-15T03:09:38;7.47;;;4.60;;
5904;SDS011;2978;42.012;24.880;2023-04-15T03:12:05;8.43;;;4.50;;
5904;SDS011;2978;42.012;24.880;2023-04-15T03:14:31;9.80;;;5.43;;
5904;SDS011;2978;42.012;24.880;2023-04-15T03:16:56;5.87;;;4.87;;
5904;SDS011;2978;42.012;24.880;2023-04-15T03:19:23;7.80;;;4.60;;
5904;SDS011;2978;42.012;24.880;2023-04-15T03:21:49;10.13;;;3.83;;
5904;SDS011;2978;42.012;24.880;2023-04-15T03:24:14;11.00;;;4.30;;
5904;SDS011;2978;42.012;24.880;2023-04-15T03:26:39;6.83;;;3.20;;
5904;SDS011;2978;42.012;24.880;2023-04-15T03:29:05;3.43;;;2.73;;
5904;SDS011;2978;42.012;24.880;2023-04-15T03:31:31;12.37;;;3.80;;
5904;SDS011;2978;42.012;24.880;2023-04-15T03:33:56;10.80;;;5.10;;
5904;SDS011;2978;42.012;24.880;2023-04-15T03:36:21;10.10;;;4.70;;
5904;SDS011;2978;42.012;24.880;2023-04-15T03:38:47;19.40;;;4.50;;
5904;SDS011;2978;42.012;24.880;2023-04-15T03:41:13;12.70;;;5.43;;
5904;SDS011;2978;42.012;24.880;2023-04-15T03:43:38;13.73;;;4.60;;
5904;SDS011;2978;42.012;24.880;2023-04-15T03:46:04;11.40;;;5.33;;
5904;SDS011;2978;42.012;24.880;2023-04-15T03:48:30;7.37;;;4.87;;
5904;SDS011;2978;42.012;24.880;2023-04-15T03:50:55;4.87;;;3.93;;
5904;SDS011;2978;42.012;24.880;2023-04-15T03:53:21;7.07;;;4.20;;
5904;SDS011;2978;42.012;24.880;2023-04-15T03:55:46;7.83;;;4.70;;
5904;SDS011;2978;42.012;24.880;2023-04-15T03:58:12;9.87;;;5.77;;
5904;SDS011;2978;42.012;24.880;2023-04-15T04:00:38;10.53;;;4.73;;
5904;SDS011;2978;42.012;24.880;2023-04-15T04:03:04;9.53;;;4.30;;
5904;SDS011;2978;42.012;24.880;2023-04-15T04:05:29;5.73;;;4.23;;
5904;SDS011;2978;42.012;24.880;2023-04-15T04:07:55;6.60;;;4.60;;
5904;SDS011;2978;42.012;24.880;2023-04-15T04:10:20;7.67;;;4.37;;
5904;SDS011;2978;42.012;24.880;2023-04-15T04:12:46;6.10;;;4.33;;
5904;SDS011;2978;42.012;24.880;2023-04-15T04:15:11;7.23;;;4.43;;
5904;SDS011;2978;42.012;24.880;2023-04-15T04:17:37;7.90;;;4.70;;
5904;SDS011;2978;42.012;24.880;2023-04-15T04:20:02;7.30;;;4.80;;
5904;SDS011;2978;42.012;24.880;2023-04-15T04:22:28;11.70;;;5.23;;
5904;SDS011;2978;42.012;24.880;2023-04-15T04:24:53;9.00;;;4.60;;
5904;SDS011;2978;42.012;24.880;2023-04-15T04:27:19;8.13;;;5.43;;
5904;SDS011;2978;42.012;24.880;2023-04-15T04:29:44;9.30;;;4.37;;
5904;SDS011;2978;42.012;24.880;2023-04-15T04:32:11;10.03;;;4.63;;
5904;SDS011;2978;42.012;24.880;2023-04-15T04:34:37;10.40;;;5.67;;
5904;SDS011;2978;42.012;24.880;2023-04-15T04:37:02;7.03;;;5.00;;
5904;SDS011;2978;42.012;24.880;2023-04-15T04:39:28;13.83;;;6.50;;
5904;SDS011;2978;42.012;24.880;2023-04-15T04:41:53;14.47;;;5.50;;
5904;SDS011;2978;42.012;24.880;2023-04-15T04:44:19;6.37;;;5.27;;
5904;SDS011;2978;42.012;24.880;2023-04-15T04:46:44;10.93;;;4.93;;
5904;SDS011;2978;42.012;24.880;2023-04-15T04:49:09;10.63;;;4.90;;
5904;SDS011;2978;42.012;24.880;2023-04-15T04:51:35;11.53;;;5.10;;
5904;SDS011;2978;42.012;24.880;2023-04-15T04:54:00;9.77;;;4.77;;
5904;SDS011;2978;42.012;24.880;2023-04-15T04:56:26;7.33;;;4.33;;
5904;SDS011;2978;42.012;24.880;2023-04-15T04:58:51;8.33;;;4.90;;
5904;SDS011;2978;42.012;24.880;2023-04-15T05:01:17;6.17;;;4.07;;
5904;SDS011;2978;42.012;24.880;2023-04-15T05:03:42;5.67;;;4.63;;
5904;SDS011;2978;42.012;24.880;2023-04-15T05:06:08;9.63;;;5.43;;
5904;SDS011;2978;42.012;24.880;2023-04-15T05:08:33;8.47;;;4.77;;
5904;SDS011;2978;42.012;24.880;2023-04-15T05:10:59;7.57;;;4.70;;
5904;SDS011;2978;42.012;24.880;2023-04-15T05:13:24;10.57;;;4.60;;
5904;SDS011;2978;42.012;24.880;2023-04-15T05:15:50;7.27;;;5.03;;
5904;SDS011;2978;42.012;24.880;2023-04-15T05:18:15;7.83;;;4.40;;
5904;SDS011;2978;42.012;24.880;2023-04-15T05:20:41;11.00;;;4.67;;
5904;SDS011;2978;42.012;24.880;2023-04-15T05:23:06;7.07;;;4.47;;
5904;SDS011;2978;42.012;24.880;2023-04-15T05:25:32;11.40;;;5.00;;
5904;SDS011;2978;42.012;24.880;2023-04-15T05:27:57;14.90;;;6.53;;
5904;SDS011;2978;42.012;24.880;2023-04-15T05:30:23;8.80;;;7.43;;
5904;SDS011;2978;42.012;24.880;2023-04-15T05:32:48;10.67;;;7.60;;
5904;SDS011;2978;42.012;24.880;2023-04-15T05:35:14;12.40;;;6.37;;
5904;SDS011;2978;42.012;24.880;2023-04-15T05:37:39;12.80;;;6.57;;
5904;SDS011;2978;42.012;24.880;2023-04-15T05:40:05;13.10;;;7.50;;
5904;SDS011;2978;42.012;24.880;2023-04-15T05:42:30;16.43;;;8.00;;
5904;SDS011;2978;42.012;24.880;2023-04-15T05:44:56;21.80;;;9.13;;
5904;SDS011;2978;42.012;24.880;2023-04-15T05:47:21;9.33;;;6.23;;
5904;SDS011;2978;42.012;24.880;2023-04-15T05:49:47;13.67;;;6.53;;
5904;SDS011;2978;42.012;24.880;2023-04-15T05:52:12;9.90;;;6.37;;
5904;SDS011;2978;42.012;24.880;2023-04-15T05:54:37;13.03;;;6.13;;
5904;SDS011;2978;42.012;24.880;2023-04-15T05:57:03;9.43;;;5.03;;
5904;SDS011;2978;42.012;24.880;2023-04-15T05:59:28;8.53;;;4.80;;
5904;SDS011;2978;42.012;24.880;2023-04-15T06:01:54;8.33;;;4.90;;
5904;SDS011;2978;42.012;24.880;2023-04-15T06:04:19;8.40;;;4.77;;
5904;SDS011;2978;42.012;24.880;2023-04-15T06:06:45;10.90;;;5.20;;
5904;SDS011;2978;42.012;24.880;2023-04-15T06:09:11;4.70;;;4.23;;
5904;SDS011;2978;42.012;24.880;2023-04-15T06:11:36;6.60;;;5.13;;
5904;SDS011;2978;42.012;24.880;2023-04-15T06:14:02;6.27;;;4.53;;
5904;SDS011;2978;42.012;24.880;2023-04-15T06:16:27;3.90;;;2.60;;
5904;SDS011;2978;42.012;24.880;2023-04-15T06:18:52;3.93;;;2.70;;
5904;SDS011;2978;42.012;24.880;2023-04-15T06:21:18;5.83;;;2.67;;
5904;SDS011;2978;42.012;24.880;2023-04-15T06:23:43;8.10;;;2.53;;
5904;SDS011;2978;42.012;24.880;2023-04-15T06:26:09;9.20;;;2.57;;
5904;SDS011;2978;42.012;24.880;2023-04-15T06:28:34;7.43;;;2.73;;
5904;SDS011;2978;42.012;24.880;2023-04-15T06:31:00;4.30;;;2.60;;
5904;SDS011;2978;42.012;24.880;2023-04-15T06:33:26;14.13;;;3.93;;
5904;SDS011;2978;42.012;24.880;2023-04-15T06:35:51;5.17;;;2.90;;
5904;SDS011;2978;42.012;24.880;2023-04-15T06:38:17;7.67;;;2.97;;
5904;SDS011;2978;42.012;24.880;2023-04-15T06:40:42;17.83;;;2.63;;
5904;SDS011;2978;42.012;24.880;2023-04-15T06:43:08;5.00;;;2.87;;
5904;SDS011;2978;42.012;24.880;2023-04-15T06:45:34;5.20;;;2.83;;
5904;SDS011;2978;42.012;24.880;2023-04-15T06:47:59;7.97;;;2.50;;
5904;SDS011;2978;42.012;24.880;2023-04-15T06:50:25;6.80;;;2.37;;
5904;SDS011;2978;42.012;24.880;2023-04-15T06:52:52;6.57;;;3.50;;
5904;SDS011;2978;42.012;24.880;2023-04-15T06:55:18;5.90;;;2.30;;
5904;SDS011;2978;42.012;24.880;2023-04-15T06:57:44;5.33;;;2.60;;
5904;SDS011;2978;42.012;24.880;2023-04-15T07:00:09;9.10;;;2.90;;
5904;SDS011;2978;42.012;24.880;2023-04-15T07:02:36;3.53;;;2.27;;
5904;SDS011;2978;42.012;24.880;2023-04-15T07:05:01;4.43;;;2.47;;
5904;SDS011;2978;42.012;24.880;2023-04-15T07:07:27;6.03;;;3.10;;
5904;SDS011;2978;42.012;24.880;2023-04-15T07:09:52;5.20;;;2.70;;
5904;SDS011;2978;42.012;24.880;2023-04-15T07:12:18;5.90;;;2.57;;
5904;SDS011;2978;42.012;24.880;2023-04-15T07:14:44;6.57;;;2.57;;
5904;SDS011;2978;42.012;24.880;2023-04-15T07:17:09;13.00;;;3.43;;
5904;SDS011;2978;42.012;24.880;2023-04-15T07:19:36;4.80;;;2.93;;
5904;SDS011;2978;42.012;24.880;2023-04-15T07:22:02;6.93;;;2.93;;
5904;SDS011;2978;42.012;24.880;2023-04-15T07:24:27;5.37;;;3.13;;
5904;SDS011;2978;42.012;24.880;2023-04-15T07:26:54;5.83;;;3.13;;
5904;SDS011;2978;42.012;24.880;2023-04-15T07:29:22;4.27;;;2.57;;
5904;SDS011;2978;42.012;24.880;2023-04-15T07:31:48;7.73;;;3.23;;
5904;SDS011;2978;42.012;24.880;2023-04-15T07:34:13;10.60;;;3.87;;
5904;SDS011;2978;42.012;24.880;2023-04-15T07:36:40;5.40;;;3.10;;
5904;SDS011;2978;42.012;24.880;2023-04-15T07:39:06;4.30;;;2.83;;
5904;SDS011;2978;42.012;24.880;2023-04-15T07:41:32;7.07;;;3.37;;
5904;SDS011;2978;42.012;24.880;2023-04-15T07:43:57;9.33;;;3.30;;
5904;SDS011;2978;42.012;24.880;2023-04-15T07:46:23;9.07;;;3.27;;
5904;SDS011;2978;42.012;24.880;2023-04-15T07:48:51;5.83;;;3.00;;
5904;SDS011;2978;42.012;24.880;2023-04-15T07:51:17;5.87;;;3.63;;
5904;SDS011;2978;42.012;24.880;2023-04-15T07:53:43;5.50;;;2.90;;
5904;SDS011;2978;42.012;24.880;2023-04-15T07:56:09;13.57;;;3.70;;
5904;SDS011;2978;42.012;24.880;2023-04-15T07:58:35;4.30;;;2.80;;
5904;SDS011;2978;42.012;24.880;2023-04-15T08:01:01;7.80;;;3.13;;
5904;SDS011;2978;42.012;24.880;2023-04-15T08:03:26;8.17;;;2.87;;
5904;SDS011;2978;42.012;24.880;2023-04-15T08:05:52;19.80;;;4.33;;
5904;SDS011;2978;42.012;24.880;2023-04-15T08:08:18;17.40;;;3.80;;
5904;SDS011;2978;42.012;24.880;2023-04-15T08:10:43;6.13;;;2.70;;
5904;SDS011;2978;42.012;24.880;2023-04-15T08:13:09;3.70;;;2.83;;
5904;SDS011;2978;42.012;24.880;2023-04-15T08:15:34;7.63;;;2.53;;
5904;SDS011;2978;42.012;24.880;2023-04-15T08:18:00;4.50;;;2.97;;
5904;SDS011;2978;42.012;24.880;2023-04-15T08:20:26;7.93;;;3.00;;
5904;SDS011;2978;42.012;24.880;2023-04-15T08:22:51;5.33;;;3.10;;
5904;SDS011;2978;42.012;24.880;2023-04-15T08:25:17;6.40;;;2.97;;
5904;SDS011;2978;42.012;24.880;2023-04-15T08:27:44;5.97;;;2.97;;
5904;SDS011;2978;42.012;24.880;2023-04-15T08:30:10;8.93;;;2.80;;
5904;SDS011;2978;42.012;24.880;2023-04-15T08:32:36;7.53;;;3.30;;
5904;SDS011;2978;42.012;24.880;2023-04-15T08:35:01;5.77;;;3.10;;
5904;SDS011;2978;42.012;24.880;2023-04-15T08:37:27;4.77;;;2.70;;
5904;SDS011;2978;42.012;24.880;2023-04-15T08:39:52;6.47;;;3.07;;
5904;SDS011;2978;42.012;24.880;2023-04-15T08:42:18;5.90;;;3.17;;
5904;SDS011;2978;42.012;24.880;2023-04-15T08:44:57;7.60;;;3.17;;
5904;SDS011;2978;42.012;24.880;2023-04-15T08:47:25;6.80;;;2.83;;
5904;SDS011;2978;42.012;24.880;2023-04-15T08:49:54;5.13;;;3.50;;
5904;SDS011;2978;42.012;24.880;2023-04-15T08:52:23;5.80;;;3.40;;
5904;SDS011;2978;42.012;24.880;2023-04-15T08:54:50;6.67;;;3.10;;
5904;SDS011;2978;42.012;24.880;2023-04-15T08:57:19;9.93;;;3.50;;
5904;SDS011;2978;42.012;24.880;2023-04-15T08:59:44;5.37;;;3.13;;
5904;SDS011;2978;42.012;24.880;2023-04-15T09:02:11;6.57;;;3.13;;
5904;SDS011;2978;42.012;24.880;2023-04-15T09:04:36;7.40;;;4.07;;
5904;SDS011;2978;42.012;24.880;2023-04-15T09:07:02;6.87;;;4.30;;
5904;SDS011;2978;42.012;24.880;2023-04-15T09:09:27;9.20;;;5.13;;
5904;SDS011;2978;42.012;24.880;2023-04-15T09:11:53;9.07;;;4.17;;
5904;SDS011;2978;42.012;24.880;2023-04-15T09:14:18;8.40;;;4.40;;
5904;SDS011;2978;42.012;24.880;2023-04-15T09:16:56;6.67;;;3.93;;
5904;SDS011;2978;42.012;24.880;2023-04-15T09:19:23;11.70;;;4.30;;
5904;SDS011;2978;42.012;24.880;2023-04-15T09:21:53;11.13;;;5.07;;
5904;SDS011;2978;42.012;24.880;2023-04-15T09:24:21;6.87;;;3.20;;
5904;SDS011;2978;42.012;24.880;2023-04-15T09:26:47;5.43;;;2.53;;
5904;SDS011;2978;42.012;24.880;2023-04-15T09:29:16;5.60;;;3.70;;
5904;SDS011;2978;42.012;24.880;2023-04-15T09:31:42;13.23;;;7.70;;
5904;SDS011;2978;42.012;24.880;2023-04-15T09:34:08;7.97;;;4.17;;
5904;SDS011;2978;42.012;24.880;2023-04-15T09:39:11;7.57;;;4.90;;
5904;SDS011;2978;42.012;24.880;2023-04-15T09:41:37;4.50;;;3.10;;
5904;SDS011;2978;42.012;24.880;2023-04-15T09:44:04;4.73;;;3.00;;
5904;SDS011;2978;42.012;24.880;2023-04-15T09:46:39;10.20;;;3.27;;
5904;SDS011;2978;42.012;24.880;2023-04-15T09:49:08;12.27;;;7.20;;
5904;SDS011;2978;42.012;24.880;2023-04-15T09:51:35;3.70;;;2.80;;
5904;SDS011;2978;42.012;24.880;2023-04-15T09:54:01;6.27;;;2.77;;
5904;SDS011;2978;42.012;24.880;2023-04-15T09:56:34;4.40;;;2.70;;
5904;SDS011;2978;42.012;24.880;2023-04-15T09:59:05;6.77;;;2.90;;
5904;SDS011;2978;42.012;24.880;2023-04-15T10:01:31;12.00;;;3.30;;
5904;SDS011;2978;42.012;24.880;2023-04-15T10:03:57;7.37;;;2.87;;
5904;SDS011;2978;42.012;24.880;2023-04-15T10:06:25;6.07;;;2.90;;
5904;SDS011;2978;42.012;24.880;2023-04-15T10:08:51;4.80;;;2.50;;
5904;SDS011;2978;42.012;24.880;2023-04-15T10:11:19;6.73;;;2.70;;
5904;SDS011;2978;42.012;24.880;2023-04-15T10:13:48;4.50;;;2.73;;
5904;SDS011;2978;42.012;24.880;2023-04-15T10:16:15;3.23;;;2.40;;
5904;SDS011;2978;42.012;24.880;2023-04-15T10:18:44;3.70;;;2.13;;
5904;SDS011;2978;42.012;24.880;2023-04-15T10:21:11;3.70;;;1.93;;
5904;SDS011;2978;42.012;24.880;2023-04-15T10:23:42;5.00;;;2.40;;
5904;SDS011;2978;42.012;24.880;2023-04-15T10:26:11;3.17;;;2.37;;
5904;SDS011;2978;42.012;24.880;2023-04-15T10:28:38;4.83;;;2.33;;
5904;SDS011;2978;42.012;24.880;2023-04-15T10:31:07;4.10;;;2.73;;
5904;SDS011;2978;42.012;24.880;2023-04-15T10:33:35;4.03;;;2.97;;
5904;SDS011;2978;42.012;24.880;2023-04-15T10:36:04;4.20;;;2.70;;
5904;SDS011;2978;42.012;24.880;2023-04-15T10:38:35;8.43;;;3.30;;
5904;SDS011;2978;42.012;24.880;2023-04-15T10:46:18;4.43;;;2.47;;
5904;SDS011;2978;42.012;24.880;2023-04-15T10:49:11;5.47;;;2.93;;
5904;SDS011;2978;42.012;24.880;2023-04-15T10:51:39;6.17;;;3.63;;
5904;SDS011;2978;42.012;24.880;2023-04-15T10:54:13;7.60;;;3.90;;
5904;SDS011;2978;42.012;24.880;2023-04-15T10:56:43;8.13;;;3.37;;
5904;SDS011;2978;42.012;24.880;2023-04-15T10:59:09;7.80;;;3.90;;
5904;SDS011;2978;42.012;24.880;2023-04-15T11:01:55;8.03;;;4.63;;
5904;SDS011;2978;42.012;24.880;2023-04-15T11:12:45;10.87;;;4.17;;
5904;SDS011;2978;42.012;24.880;2023-04-15T11:17:59;6.77;;;3.73;;
5904;SDS011;2978;42.012;24.880;2023-04-15T11:20:35;6.83;;;4.20;;
5904;SDS011;2978;42.012;24.880;2023-04-15T11:23:02;8.70;;;4.30;;
5904;SDS011;2978;42.012;24.880;2023-04-15T11:25:30;7.47;;;4.63;;
5904;SDS011;2978;42.012;24.880;2023-04-15T11:27:58;8.37;;;3.77;;
5904;SDS011;2978;42.012;24.880;2023-04-15T11:30:26;5.97;;;3.83;;
5904;SDS011;2978;42.012;24.880;2023-04-15T11:32:54;8.87;;;3.30;;
5904;SDS011;2978;42.012;24.880;2023-04-15T11:35:22;4.00;;;3.13;;
5904;SDS011;2978;42.012;24.880;2023-04-15T11:37:47;5.33;;;3.47;;
5904;SDS011;2978;42.012;24.880;2023-04-15T11:40:14;5.23;;;3.73;;
5904;SDS011;2978;42.012;24.880;2023-04-15T11:42:42;9.30;;;3.93;;
5904;SDS011;2978;42.012;24.880;2023-04-15T11:45:12;5.50;;;3.00;;
5904;SDS011;2978;42.012;24.880;2023-04-15T11:47:39;5.10;;;3.30;;
5904;SDS011;2978;42.012;24.880;2023-04-15T11:50:12;10.73;;;4.20;;
5904;SDS011;2978;42.012;24.880;2023-04-15T11:52:38;7.70;;;3.87;;
5904;SDS011;2978;42.012;24.880;2023-04-15T11:55:05;8.43;;;4.17;;
5904;SDS011;2978;42.012;24.880;2023-04-15T11:57:32;6.77;;;3.10;;
5904;SDS011;2978;42.012;24.880;2023-04-15T11:59:59;17.67;;;2.90;;
5904;SDS011;2978;42.012;24.880;2023-04-15T12:02:30;6.40;;;2.90;;
5904;SDS011;2978;42.012;24.880;2023-04-15T12:05:03;5.07;;;2.70;;
5904;SDS011;2978;42.012;24.880;2023-04-15T12:07:29;9.13;;;3.43;;
5904;SDS011;2978;42.012;24.880;2023-04-15T12:09:56;5.73;;;2.83;;
5904;SDS011;2978;42.012;24.880;2023-04-15T12:12:26;5.70;;;2.60;;
5904;SDS011;2978;42.012;24.880;2023-04-15T12:14:52;6.87;;;2.93;;
5904;SDS011;2978;42.012;24.880;2023-04-15T12:17:18;5.37;;;2.47;;
5904;SDS011;2978;42.012;24.880;2023-04-15T12:19:43;5.57;;;2.33;;
5904;SDS011;2978;42.012;24.880;2023-04-15T12:22:16;13.00;;;2.67;;
5904;SDS011;2978;42.012;24.880;2023-04-15T12:24:42;7.80;;;2.63;;
5904;SDS011;2978;42.012;24.880;2023-04-15T12:27:11;3.80;;;2.17;;
5904;SDS011;2978;42.012;24.880;2023-04-15T12:29:38;4.57;;;2.07;;
5904;SDS011;2978;42.012;24.880;2023-04-15T12:32:09;4.10;;;1.80;;
5904;SDS011;2978;42.012;24.880;2023-04-15T12:37:13;7.00;;;2.60;;
5904;SDS011;2978;42.012;24.880;2023-04-15T12:39:43;4.03;;;2.23;;
5904;SDS011;2978;42.012;24.880;2023-04-15T12:42:12;3.70;;;2.10;;
5904;SDS011;2978;42.012;24.880;2023-04-15T12:44:38;6.27;;;2.70;;
5904;SDS011;2978;42.012;24.880;2023-04-15T12:47:04;4.70;;;2.13;;
5904;SDS011;2978;42.012;24.880;2023-04-15T12:49:30;5.90;;;2.80;;
5904;SDS011;2978;42.012;24.880;2023-04-15T12:51:57;7.90;;;2.50;;
5904;SDS011;2978;42.012;24.880;2023-04-15T12:54:24;5.17;;;2.23;;
5904;SDS011;2978;42.012;24.880;2023-04-15T12:56:50;3.77;;;2.20;;
5904;SDS011;2978;42.012;24.880;2023-04-15T12:59:16;6.00;;;2.83;;
5904;SDS011;2978;42.012;24.880;2023-04-15T13:01:43;4.37;;;2.40;;
5904;SDS011;2978;42.012;24.880;2023-04-15T13:04:08;12.23;;;2.50;;
5904;SDS011;2978;42.012;24.880;2023-04-15T13:06:34;6.97;;;2.80;;
5904;SDS011;2978;42.012;24.880;2023-04-15T13:09:00;4.80;;;2.20;;
5904;SDS011;2978;42.012;24.880;2023-04-15T13:11:27;6.57;;;2.20;;
5904;SDS011;2978;42.012;24.880;2023-04-15T13:13:55;5.50;;;2.17;;
5904;SDS011;2978;42.012;24.880;2023-04-15T13:16:21;8.93;;;2.40;;
5904;SDS011;2978;42.012;24.880;2023-04-15T13:18:47;4.50;;;1.97;;
5904;SDS011;2978;42.012;24.880;2023-04-15T13:21:12;4.27;;;2.03;;
5904;SDS011;2978;42.012;24.880;2023-04-15T13:23:39;6.50;;;2.73;;
5904;SDS011;2978;42.012;24.880;2023-04-15T13:26:05;6.40;;;2.17;;
5904;SDS011;2978;42.012;24.880;2023-04-15T13:28:31;6.50;;;2.97;;
5904;SDS011;2978;42.012;24.880;2023-04-15T13:30:56;8.47;;;3.30;;
5904;SDS011;2978;42.012;24.880;2023-04-15T13:33:21;10.53;;;4.07;;
5904;SDS011;2978;42.012;24.880;2023-04-15T13:35:47;12.13;;;4.63;;
5904;SDS011;2978;42.012;24.880;2023-04-15T13:38:12;5.27;;;2.00;;
5904;SDS011;2978;42.012;24.880;2023-04-15T13:40:38;5.90;;;3.00;;
5904;SDS011;2978;42.012;24.880;2023-04-15T13:43:03;9.90;;;4.00;;
5904;SDS011;2978;42.012;24.880;2023-04-15T13:45:29;6.03;;;3.00;;
5904;SDS011;2978;42.012;24.880;2023-04-15T13:47:55;6.93;;;2.70;;
5904;SDS011;2978;42.012;24.880;2023-04-15T13:50:21;5.80;;;2.17;;
5904;SDS011;2978;42.012;24.880;2023-04-15T13:52:47;4.80;;;2.50;;
5904;SDS011;2978;42.012;24.880;2023-04-15T13:55:12;18.97;;;2.50;;
5904;SDS011;2978;42.012;24.880;2023-04-15T13:57:38;7.53;;;2.70;;
5904;SDS011;2978;42.012;24.880;2023-04-15T14:00:04;7.90;;;2.63;;
5904;SDS011;2978;42.012;24.880;2023-04-15T14:02:30;3.60;;;2.10;;
5904;SDS011;2978;42.012;24.880;2023-04-15T14:04:55;9.33;;;2.40;;
5904;SDS011;2978;42.012;24.880;2023-04-15T14:07:21;11.00;;;4.57;;
5904;SDS011;2978;42.012;24.880;2023-04-15T14:09:47;11.10;;;4.07;;
5904;SDS011;2978;42.012;24.880;2023-04-15T14:12:12;10.17;;;3.87;;
5904;SDS011;2978;42.012;24.880;2023-04-15T14:14:38;7.07;;;2.23;;
5904;SDS011;2978;42.012;24.880;2023-04-15T14:17:04;9.97;;;2.87;;
5904;SDS011;2978;42.012;24.880;2023-04-15T14:19:30;14.43;;;3.20;;
5904;SDS011;2978;42.012;24.880;2023-04-15T14:21:56;6.93;;;2.77;;
5904;SDS011;2978;42.012;24.880;2023-04-15T14:24:21;7.93;;;3.00;;
5904;SDS011;2978;42.012;24.880;2023-04-15T14:26:47;3.37;;;2.20;;
5904;SDS011;2978;42.012;24.880;2023-04-15T14:29:12;8.93;;;3.43;;
5904;SDS011;2978;42.012;24.880;2023-04-15T14:31:38;8.07;;;3.00;;
5904;SDS011;2978;42.012;24.880;2023-04-15T14:34:03;6.10;;;3.47;;
5904;SDS011;2978;42.012;24.880;2023-04-15T14:36:30;6.50;;;2.57;;
5904;SDS011;2978;42.012;24.880;2023-04-15T14:38:56;9.03;;;2.33;;
5904;SDS011;2978;42.012;24.880;2023-04-15T14:41:22;10.10;;;2.77;;
5904;SDS011;2978;42.012;24.880;2023-04-15T14:43:48;12.50;;;2.30;;
5904;SDS011;2978;42.012;24.880;2023-04-15T14:46:13;5.10;;;1.93;;
5904;SDS011;2978;42.012;24.880;2023-04-15T14:48:39;5.50;;;1.90;;
5904;SDS011;2978;42.012;24.880;2023-04-15T14:51:06;6.57;;;2.00;;
5904;SDS011;2978;42.012;24.880;2023-04-15T14:53:31;2.57;;;1.60;;
5904;SDS011;2978;42.012;24.880;2023-04-15T14:55:57;8.33;;;2.23;;
5904;SDS011;2978;42.012;24.880;2023-04-15T14:58:22;11.33;;;2.80;;
5904;SDS011;2978;42.012;24.880;2023-04-15T15:00:48;8.00;;;2.87;;
5904;SDS011;2978;42.012;24.880;2023-04-15T15:03:14;7.07;;;2.50;;
5904;SDS011;2978;42.012;24.880;2023-04-15T15:05:45;7.30;;;2.97;;
5904;SDS011;2978;42.012;24.880;2023-04-15T15:08:11;6.10;;;2.30;;
5904;SDS011;2978;42.012;24.880;2023-04-15T15:10:37;11.23;;;2.23;;
5904;SDS011;2978;42.012;24.880;2023-04-15T15:13:04;6.60;;;2.37;;
5904;SDS011;2978;42.012;24.880;2023-04-15T15:15:31;5.23;;;2.93;;